createdAt,value
2022-08-27T00:04:43.551Z,7.50
2022-08-27T00:09:48.247Z,8.10
2022-08-27T00:14:51.889Z,7.45
2022-08-27T00:30:03.003Z,7.38
2022-08-27T02:57:10.801Z,8.88
2022-08-27T03:02:14.785Z,9.10
2022-08-27T03:07:19.035Z,8.93
2022-08-27T03:12:24.888Z,8.07
2022-08-27T03:17:45.617Z,7.22
2022-08-27T03:22:49.250Z,8.80
2022-08-27T03:27:54.066Z,9.07
2022-08-27T03:32:57.461Z,8.68
2022-08-27T03:38:00.781Z,9.25
2022-08-27T03:43:05.760Z,9.25
2022-08-27T03:48:09.213Z,8.97
2022-08-27T03:53:12.847Z,9.77
2022-08-27T03:58:18.065Z,9.35
2022-08-27T04:03:21.483Z,8.83
2022-08-27T04:08:25.410Z,9.20
2022-08-27T04:13:30.164Z,10.68
2022-08-27T04:18:33.525Z,9.27
2022-08-27T04:23:37.006Z,9.48
2022-08-27T04:28:41.731Z,9.40
2022-08-27T04:33:50.866Z,8.70
2022-08-27T04:38:54.466Z,8.50
2022-08-27T04:44:03.829Z,8.82
2022-08-27T04:49:10.546Z,8.57
2022-08-27T04:54:14.377Z,8.70
2022-08-27T04:59:19.085Z,8.27
2022-08-27T05:04:22.504Z,7.88
2022-08-27T05:09:29.959Z,7.72
2022-08-27T05:14:34.688Z,7.70
2022-08-27T05:19:39.136Z,7.15
2022-08-27T05:24:44.244Z,7.28
2022-08-27T05:29:51.770Z,6.22
2022-08-27T05:34:55.118Z,6.45
2022-08-27T05:39:58.492Z,7.07
2022-08-27T05:45:03.241Z,6.60
2022-08-27T05:50:07.448Z,6.60
2022-08-27T05:55:11.052Z,7.07
2022-08-27T06:00:33.825Z,7.10
2022-08-27T06:05:37.222Z,7.50
2022-08-27T06:10:42.741Z,7.80
2022-08-27T06:15:47.524Z,8.18
2022-08-27T06:20:50.901Z,7.80
2022-08-27T06:25:54.677Z,7.50
2022-08-27T06:31:05.876Z,7.22
2022-08-27T06:36:11.787Z,7.28
2022-08-27T06:41:23.399Z,7.10
2022-08-27T06:46:30.946Z,7.40
2022-08-27T06:51:37.153Z,7.82
2022-08-27T06:56:41.588Z,7.40
2022-08-27T07:01:51.445Z,7.30
2022-08-27T07:06:54.961Z,7.20
2022-08-27T07:11:58.795Z,6.72
2022-08-27T07:17:03.507Z,6.23
2022-08-27T07:22:07.266Z,5.80
2022-08-27T07:27:10.740Z,5.77
2022-08-27T07:32:15.813Z,5.93
2022-08-27T07:37:19.169Z,5.60
2022-08-27T07:42:39.860Z,6.20
2022-08-27T07:47:44.942Z,6.32
2022-08-27T07:52:48.283Z,6.45
2022-08-27T07:57:52.713Z,6.45
2022-08-27T08:02:57.631Z,5.67
2022-08-27T08:08:02.305Z,5.10
2022-08-27T08:13:06.002Z,5.50
2022-08-27T08:18:10.903Z,5.03
2022-08-27T08:23:14.396Z,5.07
2022-08-27T08:28:17.713Z,5.20
2022-08-27T08:33:22.880Z,5.50
2022-08-27T08:38:26.811Z,5.50
2022-08-27T08:43:35.802Z,5.63
2022-08-27T08:48:43.744Z,5.40
2022-08-27T08:53:53.112Z,4.40
2022-08-27T08:59:03.444Z,5.05
2022-08-27T09:04:12.786Z,4.22
2022-08-27T09:09:28.699Z,4.45
2022-08-27T09:14:37.991Z,4.80
2022-08-27T09:19:43.801Z,5.93
2022-08-27T09:24:54.422Z,5.45
2022-08-27T09:29:58.569Z,5.43
2022-08-27T09:35:06.949Z,5.83
2022-08-27T09:40:23.017Z,5.93
2022-08-27T09:45:29.890Z,6.10
2022-08-27T09:50:43.429Z,6.10
2022-08-27T09:55:49.629Z,6.70
2022-08-27T10:01:01.927Z,6.75
2022-08-27T10:06:07.504Z,6.53
2022-08-27T10:11:15.618Z,6.20
2022-08-27T10:16:47.411Z,6.50
2022-08-27T10:21:58.283Z,6.33
2022-08-27T10:27:11.634Z,5.93
2022-08-27T10:32:33.547Z,6.45
2022-08-27T10:37:50.407Z,6.60
2022-08-27T10:43:03.564Z,6.78
2022-08-27T10:48:17.617Z,6.50
2022-08-27T10:53:30.774Z,6.32
2022-08-27T10:58:47.325Z,5.90
2022-08-27T11:03:55.997Z,6.18
2022-08-27T11:09:07.553Z,3.40
2022-08-27T11:14:23.335Z,2.35
2022-08-27T11:19:31.553Z,2.30
2022-08-27T11:24:44.083Z,2.40
2022-08-27T11:30:00.090Z,3.80
2022-08-27T11:35:07.959Z,2.90
2022-08-27T11:40:51.704Z,2.93
2022-08-27T11:45:58.705Z,2.10
2022-08-27T11:51:04.536Z,2.90
2022-08-27T11:56:21.297Z,4.07
2022-08-27T12:01:33.162Z,4.20
2022-08-27T12:06:44.817Z,4.70
2022-08-27T12:12:01.818Z,4.53
2022-08-27T12:17:13.656Z,4.40
2022-08-27T12:22:58.599Z,3.65
2022-08-27T12:28:07.103Z,2.90
2022-08-27T12:33:20.636Z,3.00
2022-08-27T12:38:42.730Z,2.77
2022-08-27T12:43:51.252Z,2.20
2022-08-27T12:48:59.294Z,2.47
2022-08-27T12:54:31.227Z,3.15
2022-08-27T12:59:55.107Z,3.80
2022-08-27T13:05:04.468Z,4.22
2022-08-27T13:10:16.365Z,4.38
2022-08-27T13:15:22.145Z,5.20
2022-08-27T13:20:28.051Z,5.20
2022-08-27T13:25:34.788Z,5.00
2022-08-27T13:30:44.325Z,4.60
2022-08-27T13:35:49.015Z,4.60
2022-08-27T13:40:57.947Z,4.55
2022-08-27T13:46:07.594Z,4.90
2022-08-27T13:51:13.315Z,4.93
2022-08-27T13:56:30.185Z,5.13
2022-08-27T14:01:35.388Z,4.57
2022-08-27T14:06:44.454Z,4.40
2022-08-27T14:11:49.822Z,4.40
2022-08-27T14:17:01.060Z,4.25
2022-08-27T14:22:05.649Z,5.20
2022-08-27T14:27:13.932Z,4.50
2022-08-27T14:32:21.390Z,4.77
2022-08-27T14:37:25.660Z,4.00
2022-08-27T14:42:29.368Z,3.83
2022-08-27T14:47:34.354Z,4.50
2022-08-27T14:52:39.563Z,3.40
2022-08-27T14:57:52.489Z,3.42
2022-08-27T15:02:58.048Z,2.90
2022-08-27T15:08:01.436Z,2.83
2022-08-27T15:13:05.373Z,2.43
2022-08-27T15:18:10.757Z,2.90
2022-08-27T15:23:15.672Z,2.92
2022-08-27T15:28:19.185Z,3.95
2022-08-27T15:33:24.696Z,3.70
2022-08-27T15:38:28.278Z,4.05
2022-08-27T15:43:31.724Z,3.45
2022-08-27T15:48:36.600Z,3.50
2022-08-27T15:53:41.686Z,3.40
2022-08-27T15:58:45.048Z,3.33
2022-08-27T16:03:50.177Z,3.60
2022-08-27T16:08:54.292Z,2.80
2022-08-27T16:13:57.632Z,2.63
2022-08-27T16:19:04.032Z,2.50
2022-08-27T16:24:09.502Z,2.55
2022-08-27T16:29:14.340Z,2.75
2022-08-27T16:34:22.926Z,2.90
2022-08-27T16:39:30.445Z,2.80
2022-08-27T16:44:36.598Z,3.20
2022-08-27T16:49:58.437Z,3.40
2022-08-27T16:55:01.767Z,3.13
2022-08-27T17:00:06.433Z,3.83
2022-08-27T17:05:33.610Z,3.85
2022-08-27T17:10:40.838Z,4.30
2022-08-27T17:15:44.828Z,3.80
2022-08-27T17:20:49.834Z,3.35
2022-08-27T17:25:53.270Z,3.20
2022-08-27T17:30:57.607Z,3.30
2022-08-27T17:36:02.376Z,3.50
2022-08-27T17:41:13.099Z,3.78
2022-08-27T17:46:16.697Z,3.27
2022-08-27T17:51:22.867Z,3.00
2022-08-27T17:56:26.555Z,3.08
2022-08-27T18:01:33.287Z,3.10
2022-08-27T18:06:38.298Z,2.80
2022-08-27T18:11:41.825Z,2.75
2022-08-27T18:16:45.203Z,3.20
2022-08-27T18:21:50.029Z,2.72
2022-08-27T18:26:53.530Z,2.97
2022-08-27T18:31:57.394Z,2.65
2022-08-27T18:37:02.215Z,2.72
2022-08-27T18:42:06.884Z,2.30
2022-08-27T18:47:10.246Z,2.78
2022-08-27T18:52:15.268Z,2.60
2022-08-27T18:57:18.730Z,2.60
2022-08-27T19:02:22.765Z,2.90
2022-08-27T19:07:29.715Z,2.88
2022-08-27T19:12:33.187Z,3.25
2022-08-27T19:17:37.693Z,3.00
2022-08-27T19:22:42.450Z,3.30
2022-08-27T19:27:47.340Z,3.87
2022-08-27T19:32:54.796Z,3.60
2022-08-27T19:38:02.030Z,3.17
2022-08-27T19:43:07.175Z,3.28
2022-08-27T19:48:12.631Z,3.63
2022-08-27T19:53:18.318Z,3.88
2022-08-27T19:58:21.980Z,3.47
2022-08-27T20:03:25.948Z,3.23
2022-08-27T20:08:30.861Z,3.25
2022-08-27T20:13:34.720Z,3.10
2022-08-27T20:18:38.168Z,3.20
2022-08-27T20:23:43.664Z,3.10
2022-08-27T20:28:47.437Z,3.17
2022-08-27T20:33:51.189Z,3.33
2022-08-27T20:38:56.229Z,3.43
2022-08-27T20:43:59.543Z,3.60
2022-08-27T20:49:04.547Z,3.90
2022-08-27T20:54:09.298Z,3.85
2022-08-27T20:59:30.385Z,3.70
2022-08-27T21:04:38.850Z,3.80
2022-08-27T21:09:56.419Z,4.00
2022-08-27T21:15:02.446Z,4.25
2022-08-27T21:20:07.740Z,4.18
2022-08-27T21:25:14.372Z,4.40
2022-08-27T21:30:18.039Z,4.65
2022-08-27T21:35:21.361Z,5.07
2022-08-27T21:40:28.141Z,5.65
2022-08-27T21:45:31.946Z,5.82
2022-08-27T21:50:35.362Z,5.70
2022-08-27T21:55:40.652Z,6.47
2022-08-27T22:00:45.953Z,6.22
2022-08-27T22:05:49.562Z,6.00
2022-08-27T22:10:57.981Z,6.43
2022-08-27T22:16:01.653Z,5.30
2022-08-27T22:21:06.237Z,5.47
2022-08-27T22:26:11.009Z,5.97
2022-08-27T22:31:14.411Z,5.70
2022-08-27T22:36:17.775Z,6.22
2022-08-27T22:41:22.639Z,5.97
2022-08-27T22:46:26.972Z,6.15
2022-08-27T22:51:30.344Z,6.00
2022-08-27T22:56:35.092Z,6.10
2022-08-27T23:01:39.444Z,6.80
2022-08-27T23:06:42.815Z,6.63
2022-08-27T23:11:47.540Z,6.50
2022-08-27T23:16:50.952Z,6.50
2022-08-27T23:21:54.591Z,7.30
2022-08-27T23:27:16.703Z,7.25
2022-08-27T23:32:20.047Z,7.37
2022-08-27T23:37:24.008Z,7.50
2022-08-27T23:42:29.021Z,8.20
2022-08-27T23:47:32.415Z,7.37
2022-08-27T23:52:36.058Z,7.32
2022-08-27T23:57:41.133Z,7.18
